createdAt,value
2022-12-09T00:00:43.982Z,100818.50
2022-12-09T00:03:10.639Z,100822.09
2022-12-09T00:05:40.249Z,100817.88
2022-12-09T00:08:06.912Z,100814.09
2022-12-09T00:10:33.419Z,100814.09
2022-12-09T00:12:59.974Z,100822.38
2022-12-09T00:15:26.435Z,100822.03
2022-12-09T00:17:53.108Z,100824.88
2022-12-09T00:20:19.563Z,100825.63
2022-12-09T00:22:46.012Z,100822.31
2022-12-09T00:25:12.466Z,100820.78
2022-12-09T00:27:39.077Z,100823.91
2022-12-09T00:30:06.600Z,100822.09
2022-12-09T00:32:33.449Z,100819.09
2022-12-09T00:34:59.982Z,100822.66
2022-12-09T00:37:26.398Z,100827.47
2022-12-09T00:39:52.845Z,100824.09
2022-12-09T00:42:19.293Z,100814.59
2022-12-09T00:44:45.780Z,100822.72
2022-12-09T00:47:12.594Z,100824.34
2022-12-09T00:49:39.342Z,100829.78
2022-12-09T00:52:06.015Z,100820.88
2022-12-09T00:54:32.577Z,100827.19
2022-12-09T00:56:59.190Z,100823.41
2022-12-09T00:59:26.029Z,100836.19
2022-12-09T01:01:52.596Z,100827.84
2022-12-09T01:04:19.280Z,100820.94
2022-12-09T01:06:46.103Z,100819.84
2022-12-09T01:09:14.043Z,100825.28
2022-12-09T01:11:40.563Z,100825.38
2022-12-09T01:14:07.213Z,100829.28
2022-12-09T01:16:35.229Z,100832.44
2022-12-09T01:19:05.433Z,100830.16
2022-12-09T01:21:33.293Z,100829.09
2022-12-09T01:24:00.240Z,100833.75
2022-12-09T01:26:27.208Z,100835.81
2022-12-09T01:28:55.360Z,100835.81
2022-12-09T01:31:24.089Z,100842.41
2022-12-09T01:33:51.084Z,100849.03
2022-12-09T01:36:26.199Z,100854.53
2022-12-09T01:38:53.179Z,100853.81
2022-12-09T01:41:21.954Z,100850.13
2022-12-09T01:44:20.205Z,100850.88
2022-12-09T01:46:47.573Z,100852.81
2022-12-09T01:49:22.859Z,100850.25
2022-12-09T01:52:00.341Z,100858.78
2022-12-09T01:54:27.318Z,100854.13
2022-12-09T01:56:54.110Z,100860.41
2022-12-09T01:59:21.823Z,100860.84
2022-12-09T02:01:51.859Z,100855.44
2022-12-09T02:04:18.854Z,100856.72
2022-12-09T02:06:45.927Z,100863.75
2022-12-09T02:09:12.748Z,100857.16
2022-12-09T02:12:03.509Z,100853.41
2022-12-09T02:14:41.492Z,100850.34
2022-12-09T02:17:25.939Z,100843.75
2022-12-09T02:20:35.049Z,100843.88
2022-12-09T02:23:15.708Z,100850.13
2022-12-09T02:25:45.258Z,100856.31
2022-12-09T02:28:57.005Z,100847.53
2022-12-09T02:31:40.806Z,100844.41
2022-12-09T02:34:18.122Z,100849.50
2022-12-09T02:37:04.928Z,100834.88
2022-12-09T02:39:43.815Z,100836.41
2022-12-09T02:42:16.467Z,100844.50
2022-12-09T02:44:45.720Z,100843.44
2022-12-09T02:47:16.741Z,100835.75
2022-12-09T02:49:46.781Z,100847.03
2022-12-09T02:52:13.833Z,100840.84
2022-12-09T02:54:41.325Z,100833.91
2022-12-09T02:57:14.611Z,100834.66
2022-12-09T02:59:41.470Z,100833.16
2022-12-09T03:02:16.005Z,100832.09
2022-12-09T03:04:48.033Z,100836.28
2022-12-09T03:07:44.085Z,100835.22
2022-12-09T03:10:17.836Z,100839.09
2022-12-09T03:12:52.780Z,100838.81
2022-12-09T03:15:25.099Z,100836.09
2022-12-09T03:17:53.378Z,100836.09
2022-12-09T03:20:26.483Z,100831.53
2022-12-09T03:22:55.959Z,100839.22
2022-12-09T03:25:28.037Z,100837.38
2022-12-09T03:28:01.993Z,100837.03
2022-12-09T03:30:31.538Z,100834.78
2022-12-09T03:32:58.698Z,100835.22
2022-12-09T03:35:32.387Z,100840.28
2022-12-09T03:38:00.745Z,100836.38
2022-12-09T03:40:30.641Z,100833.38
2022-12-09T03:43:11.105Z,100834.22
2022-12-09T03:45:37.982Z,100828.50
2022-12-09T03:48:04.816Z,100831.53
2022-12-09T03:50:36.368Z,100826.97
2022-12-09T03:53:14.316Z,100825.78
2022-12-09T03:56:06.741Z,100820.38
2022-12-09T03:58:35.233Z,100814.66
2022-12-09T04:01:02.973Z,100819.72
2022-12-09T04:03:30.071Z,100812.47
2022-12-09T04:05:56.699Z,100814.44
2022-12-09T04:08:23.386Z,100808.25
2022-12-09T04:10:49.903Z,100807.06
2022-12-09T04:13:16.739Z,100804.81
2022-12-09T04:15:43.190Z,100807.19
2022-12-09T04:18:09.842Z,100809.56
2022-12-09T04:20:36.917Z,100810.63
2022-12-09T04:23:03.595Z,100809.56
2022-12-09T04:25:30.397Z,100817.66
2022-12-09T04:27:57.287Z,100814.97
2022-12-09T04:30:23.729Z,100818.53
2022-12-09T04:32:50.328Z,100818.53
2022-12-09T04:35:17.044Z,100812.38
2022-12-09T04:37:43.875Z,100813.97
2022-12-09T04:40:11.421Z,100810.09
2022-12-09T04:42:38.565Z,100807.81
2022-12-09T04:45:05.616Z,100799.38
2022-12-09T04:47:33.779Z,100801.75
2022-12-09T04:50:00.605Z,100801.41
2022-12-09T04:52:27.595Z,100794.84
2022-12-09T04:54:54.195Z,100800.25
2022-12-09T04:57:20.852Z,100803.06
2022-12-09T04:59:47.742Z,100801.09
2022-12-09T05:02:14.296Z,100797.66
2022-12-09T05:04:43.024Z,100797.66
2022-12-09T05:07:11.193Z,100806.94
2022-12-09T05:09:38.341Z,100804.66
2022-12-09T05:12:05.304Z,100801.97
2022-12-09T05:14:31.917Z,100795.03
2022-12-09T05:16:58.769Z,100802.41
2022-12-09T05:19:25.715Z,100800.13
2022-12-09T05:21:52.433Z,100807.47
2022-12-09T05:24:19.046Z,100801.72
2022-12-09T05:26:45.733Z,100803.69
2022-12-09T05:29:15.204Z,100802.16
2022-12-09T05:31:44.772Z,100805.72
2022-12-09T05:34:11.589Z,100806.91
2022-12-09T05:36:38.252Z,100806.91
2022-12-09T05:39:04.960Z,100808.84
2022-12-09T05:41:31.484Z,100809.63
2022-12-09T05:43:58.360Z,100807.34
2022-12-09T05:46:25.070Z,100805.03
2022-12-09T05:48:51.784Z,100807.75
2022-12-09T05:51:28.089Z,100797.03
2022-12-09T05:53:56.690Z,100803.97
2022-12-09T05:56:24.555Z,100806.16
2022-12-09T05:58:55.701Z,100806.81
2022-12-09T06:01:23.765Z,100805.09
2022-12-09T06:03:52.966Z,100802.94
2022-12-09T06:06:22.252Z,100802.63
2022-12-09T06:08:49.621Z,100811.19
2022-12-09T06:11:19.713Z,100807.41
2022-12-09T06:13:47.326Z,100812.06
2022-12-09T06:16:15.443Z,100805.56
2022-12-09T06:18:42.667Z,100818.31
2022-12-09T06:21:11.506Z,100821.88
2022-12-09T06:23:41.429Z,100824.69
2022-12-09T06:26:17.190Z,100818.50
2022-12-09T06:28:44.037Z,100818.16
2022-12-09T06:31:10.984Z,100820.94
2022-12-09T06:33:54.123Z,100825.56
2022-12-09T06:36:22.636Z,100819.75
2022-12-09T06:38:49.557Z,100819.81
2022-12-09T06:41:16.444Z,100830.31
2022-12-09T06:43:43.969Z,100822.66
2022-12-09T06:46:15.493Z,100823.47
2022-12-09T06:48:42.772Z,100820.06
2022-12-09T06:51:09.824Z,100828.25
2022-12-09T06:53:37.323Z,100832.19
2022-12-09T06:56:11.535Z,100825.31
2022-12-09T06:58:40.586Z,100819.63
2022-12-09T07:01:13.756Z,100827.91
2022-12-09T07:03:42.895Z,100833.38
2022-12-09T07:06:29.060Z,100832.78
2022-12-09T07:08:59.087Z,100831.91
2022-12-09T07:11:26.511Z,100842.16
2022-12-09T07:13:53.538Z,100833.44
2022-12-09T07:16:20.351Z,100841.31
2022-12-09T07:18:47.680Z,100838.91
2022-12-09T07:21:17.496Z,100839.22
2022-12-09T07:23:44.783Z,100839.06
2022-12-09T07:26:11.935Z,100826.72
2022-12-09T07:28:42.469Z,100830.19
2022-12-09T07:31:21.161Z,100845.22
2022-12-09T07:33:48.420Z,100838.31
2022-12-09T07:36:20.667Z,100837.88
2022-12-09T07:38:48.239Z,100834.09
2022-12-09T07:41:21.015Z,100841.78
2022-12-09T07:43:48.187Z,100835.28
2022-12-09T07:46:17.335Z,100834.53
2022-12-09T07:48:44.310Z,100839.97
2022-12-09T07:51:10.987Z,100838.47
2022-12-09T07:53:38.634Z,100847.03
2022-12-09T07:56:08.605Z,100848.56
2022-12-09T07:58:35.597Z,100849.34
2022-12-09T08:01:11.436Z,100850.81
2022-12-09T08:03:40.275Z,100850.81
2022-12-09T08:06:07.475Z,100850.38
2022-12-09T08:08:34.848Z,100851.56
2022-12-09T08:11:17.147Z,100852.31
2022-12-09T08:13:44.414Z,100858.06
2022-12-09T08:16:13.646Z,100858.38
2022-12-09T08:18:42.165Z,100861.41
2022-12-09T08:21:17.529Z,100866.94
2022-12-09T08:23:44.899Z,100864.09
2022-12-09T08:26:12.981Z,100871.34
2022-12-09T08:28:40.336Z,100864.72
2022-12-09T08:31:09.336Z,100867.75
2022-12-09T08:33:36.530Z,100860.97
2022-12-09T08:36:07.719Z,100859.31
2022-12-09T08:38:34.608Z,100864.00
2022-12-09T08:41:12.521Z,100867.31
2022-12-09T08:43:40.095Z,100867.94
2022-12-09T08:46:07.930Z,100860.69
2022-12-09T08:48:39.022Z,100856.16
2022-12-09T08:51:06.531Z,100855.72
2022-12-09T08:53:33.543Z,100850.88
2022-12-09T08:56:07.010Z,100844.69
2022-12-09T08:58:34.189Z,100853.44
2022-12-09T09:01:01.311Z,100856.16
2022-12-09T09:03:28.116Z,100843.69
2022-12-09T09:06:07.048Z,100862.22
2022-12-09T09:08:36.200Z,100858.63
2022-12-09T09:11:10.473Z,100870.50
2022-12-09T09:13:39.288Z,100863.41
2022-12-09T09:16:11.408Z,100861.00
2022-12-09T09:18:38.672Z,100860.59
2022-12-09T09:21:07.658Z,100858.13
2022-12-09T09:23:34.712Z,100862.81
2022-12-09T09:26:02.611Z,100871.13
2022-12-09T09:28:31.766Z,100865.81
2022-12-09T09:31:04.401Z,100869.00
2022-12-09T09:33:31.541Z,100877.44
2022-12-09T09:36:01.798Z,100868.41
2022-12-09T09:38:33.346Z,100875.66
2022-12-09T09:41:02.056Z,100870.81
2022-12-09T09:43:34.263Z,100866.91
2022-12-09T09:46:01.287Z,100869.91
2022-12-09T09:48:32.609Z,100865.19
2022-12-09T09:51:13.096Z,100869.16
2022-12-09T09:53:41.156Z,100864.34
2022-12-09T09:56:37.718Z,100856.63
2022-12-09T09:59:19.824Z,100855.88
2022-12-09T10:02:02.494Z,100862.97
2022-12-09T10:04:51.072Z,100858.28
2022-12-09T10:07:51.651Z,100859.50
2022-12-09T10:10:36.646Z,100857.53
2022-12-09T10:13:18.649Z,100852.44
2022-12-09T10:16:06.681Z,100858.75
2022-12-09T10:19:02.660Z,100856.50
2022-12-09T10:21:42.459Z,100850.28
2022-12-09T10:24:20.610Z,100852.09
2022-12-09T10:27:14.576Z,100847.88
2022-12-09T10:30:00.897Z,100858.44
2022-12-09T10:32:30.966Z,100850.47
2022-12-09T10:34:59.220Z,100850.75
2022-12-09T10:37:35.335Z,100856.16
2022-12-09T10:40:07.829Z,100850.28
2022-12-09T10:43:02.064Z,100841.22
2022-12-09T10:45:40.338Z,100855.16
2022-12-09T10:48:34.463Z,100847.28
2022-12-09T10:51:11.382Z,100850.47
2022-12-09T10:53:45.370Z,100845.78
2022-12-09T10:56:20.160Z,100842.44
2022-12-09T10:58:47.328Z,100845.16
2022-12-09T11:01:16.082Z,100850.59
2022-12-09T11:03:53.693Z,100841.09
2022-12-09T11:06:26.085Z,100846.22
2022-12-09T11:09:01.482Z,100844.56
2022-12-09T11:11:46.532Z,100848.03
2022-12-09T11:14:23.123Z,100839.41
2022-12-09T11:16:50.605Z,100842.00
2022-12-09T11:19:17.650Z,100830.69
2022-12-09T11:21:44.565Z,100839.13
2022-12-09T11:24:24.860Z,100842.13
2022-12-09T11:26:51.660Z,100836.06
2022-12-09T11:29:22.168Z,100832.00
2022-12-09T11:31:49.169Z,100833.06
2022-12-09T11:34:27.381Z,100830.22
2022-12-09T11:36:58.966Z,100830.31
2022-12-09T11:39:36.508Z,100829.56
2022-12-09T11:42:21.902Z,100824.00
2022-12-09T11:44:56.539Z,100830.47
2022-12-09T11:47:27.831Z,100827.28
2022-12-09T11:50:06.018Z,100823.97
2022-12-09T11:52:32.968Z,100831.34
2022-12-09T11:55:11.066Z,100830.75
2022-12-09T11:57:47.386Z,100834.69
2022-12-09T12:00:25.289Z,100831.81
2022-12-09T12:03:04.410Z,100832.28
2022-12-09T12:05:41.005Z,100827.91
2022-12-09T12:08:36.060Z,100825.47
2022-12-09T12:11:13.382Z,100826.53
2022-12-09T12:13:48.692Z,100822.31
2022-12-09T12:16:36.095Z,100816.88
2022-12-09T12:19:30.926Z,100822.31
2022-12-09T12:22:32.651Z,100821.56
2022-12-09T12:24:59.166Z,100815.38
2022-12-09T12:30:14.684Z,100820.69
2022-12-09T12:35:57.127Z,100809.97
2022-12-09T12:38:29.300Z,100819.78
2022-12-09T12:41:04.983Z,100823.28
2022-12-09T12:44:08.348Z,100815.56
2022-12-09T12:46:54.130Z,100815.28
2022-12-09T12:49:38.377Z,100815.72
2022-12-09T12:52:55.757Z,100825.53
2022-12-09T12:55:21.769Z,100822.38
2022-12-09T12:57:57.154Z,100814.81
2022-12-09T13:00:28.204Z,100811.34
2022-12-09T13:03:09.075Z,100819.06
2022-12-09T13:05:41.387Z,100815.16
2022-12-09T13:08:37.196Z,100811.97
2022-12-09T13:11:20.001Z,100813.78
2022-12-09T13:13:54.777Z,100803.66
2022-12-09T13:16:29.763Z,100802.94
2022-12-09T13:19:14.128Z,100807.59
2022-12-09T13:21:40.856Z,100804.09
2022-12-09T13:24:21.850Z,100799.47
2022-12-09T13:27:04.653Z,100799.13
2022-12-09T13:29:46.549Z,100799.63
2022-12-09T13:32:37.341Z,100813.19
2022-12-09T13:35:31.163Z,100806.69
2022-12-09T13:37:59.200Z,100810.16
2022-12-09T13:40:36.571Z,100809.38
2022-12-09T13:43:03.047Z,100803.19
2022-12-09T13:45:37.009Z,100802.94
2022-12-09T13:48:16.574Z,100805.66
2022-12-09T13:50:49.435Z,100802.59
2022-12-09T13:53:18.945Z,100811.50
2022-12-09T13:56:00.695Z,100804.56
2022-12-09T13:58:30.518Z,100804.56
2022-12-09T14:01:04.801Z,100800.81
2022-12-09T14:03:35.908Z,100809.72
2022-12-09T14:06:16.942Z,100806.25
2022-12-09T14:08:50.422Z,100803.19
2022-12-09T14:11:49.250Z,100797.50
2022-12-09T14:14:24.983Z,100801.41
2022-12-09T14:16:53.450Z,100806.06
2022-12-09T14:19:26.443Z,100808.03
2022-12-09T14:22:19.176Z,100801.13
2022-12-09T14:24:49.507Z,100805.03
2022-12-09T14:27:27.845Z,100800.06
2022-12-09T14:29:58.669Z,100798.56
2022-12-09T14:32:30.720Z,100799.75
2022-12-09T14:35:11.015Z,100805.19
2022-12-09T14:38:06.509Z,100813.34
2022-12-09T14:40:39.360Z,100805.63
2022-12-09T14:43:08.510Z,100806.84
2022-12-09T14:46:00.454Z,100804.13
2022-12-09T14:48:31.385Z,100801.88
2022-12-09T14:51:35.256Z,100808.50
2022-12-09T14:54:12.276Z,100804.28
2022-12-09T14:56:38.862Z,100798.09
2022-12-09T14:59:16.314Z,100803.53
2022-12-09T15:01:52.661Z,100797.34
2022-12-09T15:04:40.414Z,100808.97
2022-12-09T15:07:16.697Z,100806.69
2022-12-09T15:09:54.578Z,100806.69
2022-12-09T15:12:35.194Z,100805.19
2022-12-09T15:15:07.898Z,100798.25
2022-12-09T15:17:43.456Z,100797.03
2022-12-09T15:20:22.724Z,100809.09
2022-12-09T15:22:52.863Z,100809.09
2022-12-09T15:25:21.957Z,100802.91
2022-12-09T15:28:05.120Z,100807.59
2022-12-09T15:30:36.097Z,100803.06
2022-12-09T15:33:04.045Z,100812.09
2022-12-09T15:35:33.627Z,100811.81
2022-12-09T15:38:04.977Z,100820.09
2022-12-09T15:40:33.486Z,100822.66
2022-12-09T15:43:10.070Z,100823.13
2022-12-09T15:45:39.190Z,100829.44
2022-12-09T15:48:14.898Z,100833.38
2022-12-09T15:50:49.664Z,100827.19
2022-12-09T15:53:18.856Z,100822.97
2022-12-09T15:56:05.553Z,100825.66
2022-12-09T15:58:38.261Z,100818.69
2022-12-09T16:01:05.067Z,100826.44
2022-12-09T16:03:33.551Z,100831.41
2022-12-09T16:06:10.860Z,100832.16
2022-12-09T16:08:41.574Z,100823.13
2022-12-09T16:11:08.116Z,100827.34
2022-12-09T16:13:34.618Z,100832.28
2022-12-09T16:16:21.995Z,100835.75
2022-12-09T16:18:50.163Z,100840.31
2022-12-09T16:21:27.852Z,100835.63
2022-12-09T16:23:56.877Z,100842.91
2022-12-09T16:26:31.062Z,100844.84
2022-12-09T16:29:04.405Z,100843.66
2022-12-09T16:31:30.980Z,100843.94
2022-12-09T16:33:57.845Z,100843.03
2022-12-09T16:36:30.194Z,100838.84
2022-12-09T16:39:08.922Z,100843.03
2022-12-09T16:41:50.548Z,100835.63
2022-12-09T16:44:22.868Z,100839.09
2022-12-09T16:46:49.579Z,100843.78
2022-12-09T16:49:15.997Z,100846.84
2022-12-09T16:51:42.547Z,100845.28
2022-12-09T16:54:20.870Z,100845.28
2022-12-09T16:56:47.998Z,100845.59
2022-12-09T16:59:14.468Z,100842.16
2022-12-09T17:01:42.215Z,100842.88
2022-12-09T17:04:22.089Z,100844.13
2022-12-09T17:06:48.798Z,100847.09
2022-12-09T17:09:15.330Z,100849.06
2022-12-09T17:11:46.997Z,100851.47
2022-12-09T17:14:15.163Z,100859.94
2022-12-09T17:16:41.660Z,100861.88
2022-12-09T17:19:08.288Z,100865.34
2022-12-09T17:21:34.764Z,100863.88
2022-12-09T17:24:01.289Z,100863.88
2022-12-09T17:26:27.762Z,100859.63
2022-12-09T17:28:59.808Z,100860.41
2022-12-09T17:31:28.378Z,100861.59
2022-12-09T17:33:56.338Z,100865.34
2022-12-09T17:36:23.041Z,100869.31
2022-12-09T17:38:49.554Z,100876.22
2022-12-09T17:41:20.482Z,100872.44
2022-12-09T17:43:47.009Z,100877.88
2022-12-09T17:46:13.814Z,100877.88
2022-12-09T17:48:41.759Z,100882.53
2022-12-09T17:51:10.810Z,100877.88
2022-12-09T17:53:39.131Z,100880.28
2022-12-09T17:56:09.927Z,100884.50
2022-12-09T17:58:36.958Z,100889.19
2022-12-09T18:01:04.118Z,100888.41
2022-12-09T18:03:54.908Z,100891.13
2022-12-09T18:06:17.844Z,100895.38
2022-12-09T18:08:44.306Z,100895.38
2022-12-09T18:11:11.339Z,100897.03
2022-12-09T18:13:37.907Z,100894.34
2022-12-09T18:16:09.613Z,100894.59
2022-12-09T18:18:36.994Z,100901.28
2022-12-09T18:21:03.863Z,100896.56
2022-12-09T18:23:30.358Z,100898.06
2022-12-09T18:25:57.721Z,100901.28
2022-12-09T18:28:27.594Z,100902.75
2022-12-09T18:30:55.127Z,100900.78
2022-12-09T18:33:24.701Z,100898.56
2022-12-09T18:35:51.527Z,100898.56
2022-12-09T18:38:18.048Z,100904.72
2022-12-09T18:41:03.327Z,100903.97
2022-12-09T18:43:36.807Z,100903.22
2022-12-09T18:46:06.173Z,100902.47
2022-12-09T18:48:32.683Z,100905.94
2022-12-09T18:50:59.145Z,100903.97
2022-12-09T18:53:25.900Z,100916.03
2022-12-09T18:55:53.001Z,100907.13
2022-12-09T18:58:31.546Z,100917.56
2022-12-09T19:01:23.849Z,100909.84
2022-12-09T19:03:53.297Z,100909.84
2022-12-09T19:06:26.321Z,100911.78
2022-12-09T19:08:57.159Z,100911.78
2022-12-09T19:11:28.971Z,100909.06
2022-12-09T19:13:56.146Z,100914.50
2022-12-09T19:16:24.146Z,100911.78
2022-12-09T19:18:51.452Z,100909.84
2022-12-09T19:21:19.470Z,100917.81
2022-12-09T19:23:47.289Z,100922.75
2022-12-09T19:26:28.062Z,100920.16
2022-12-09T19:28:58.286Z,100917.16
2022-12-09T19:31:30.169Z,100916.38
2022-12-09T19:33:58.917Z,100926.78
2022-12-09T19:36:27.843Z,100929.81
2022-12-09T19:38:55.039Z,100931.78
2022-12-09T19:41:21.547Z,100933.16
2022-12-09T19:43:48.111Z,100931.97
2022-12-09T19:46:15.610Z,100930.72
2022-12-09T19:48:44.287Z,100933.03
2022-12-09T19:51:13.740Z,100937.25
2022-12-09T19:53:40.608Z,100940.25
2022-12-09T19:56:18.798Z,100939.06
2022-12-09T19:58:46.458Z,100941.34
2022-12-09T20:01:21.625Z,100940.84
2022-12-09T20:03:51.391Z,100940.09
2022-12-09T20:06:20.624Z,100940.44
2022-12-09T20:08:47.843Z,100941.47
2022-12-09T20:11:17.436Z,100936.81
2022-12-09T20:13:44.513Z,100936.81
2022-12-09T20:16:15.747Z,100937.91
2022-12-09T20:18:42.824Z,100942.84
2022-12-09T20:21:11.798Z,100945.56
2022-12-09T20:23:39.829Z,100948.28
2022-12-09T20:26:11.962Z,100958.69
2022-12-09T20:28:40.022Z,100947.84
2022-12-09T20:31:15.557Z,100956.78
2022-12-09T20:33:43.028Z,100954.06
2022-12-09T20:36:12.605Z,100962.19
2022-12-09T20:38:39.850Z,100962.94
2022-12-09T20:41:09.884Z,100969.13
2022-12-09T20:43:39.581Z,100976.06
2022-12-09T20:46:18.644Z,100976.06
2022-12-09T20:48:46.430Z,100982.25
2022-12-09T20:51:28.080Z,100973.34
2022-12-09T20:53:56.098Z,100973.34
2022-12-09T20:56:25.140Z,100978.75
2022-12-09T20:58:53.672Z,100977.91
2022-12-09T21:01:20.156Z,100983.00
2022-12-09T21:03:47.879Z,100982.25
2022-12-09T21:06:15.343Z,100973.34
2022-12-09T21:08:43.053Z,100980.28
2022-12-09T21:11:15.629Z,100983.00
2022-12-09T21:13:48.026Z,100976.06
2022-12-09T21:16:19.782Z,100980.00
2022-12-09T21:18:50.505Z,100980.28
2022-12-09T21:21:18.764Z,100979.25
2022-12-09T21:23:45.560Z,100979.25
2022-12-09T21:26:14.556Z,100974.22
2022-12-09T21:28:42.189Z,100983.91
2022-12-09T21:31:13.055Z,100972.72
2022-12-09T21:33:40.882Z,100974.22
2022-12-09T21:36:09.751Z,100970.00
2022-12-09T21:38:37.171Z,100970.75
2022-12-09T21:41:06.947Z,100971.22
2022-12-09T21:43:34.777Z,100979.38
2022-12-09T21:46:03.215Z,100977.88
2022-12-09T21:48:29.741Z,100974.41
2022-12-09T21:50:57.805Z,100980.56
2022-12-09T21:53:24.333Z,100987.97
2022-12-09T21:55:51.676Z,100991.09
2022-12-09T21:58:18.340Z,100992.59
2022-12-09T22:00:45.294Z,100998.81
2022-12-09T22:03:11.998Z,100993.81
2022-12-09T22:05:38.762Z,100995.03
2022-12-09T22:08:05.375Z,101003.91
2022-12-09T22:10:31.876Z,101004.25
2022-12-09T22:12:58.319Z,101003.91
2022-12-09T22:15:24.805Z,101007.38
2022-12-09T22:17:51.287Z,101004.38
2022-12-09T22:23:04.220Z,101011.78
2022-12-09T22:25:30.685Z,101009.81
2022-12-09T22:27:57.534Z,101008.31
2022-12-09T22:30:24.016Z,101007.97
2022-12-09T22:32:51.140Z,101010.38
2022-12-09T22:35:17.765Z,101006.59
2022-12-09T22:37:44.409Z,101011.72
2022-12-09T22:40:11.559Z,101019.25
2022-12-09T22:42:38.045Z,101013.63
2022-12-09T22:45:05.860Z,101019.19
2022-12-09T22:47:32.831Z,101015.09
2022-12-09T22:49:59.284Z,101016.41
2022-12-09T22:52:25.760Z,101010.06
2022-12-09T22:54:52.266Z,101016.06
2022-12-09T22:57:18.747Z,101010.00
2022-12-09T22:59:45.205Z,101014.47
2022-12-09T23:02:11.671Z,101007.66
2022-12-09T23:04:38.227Z,101012.03
2022-12-09T23:07:04.650Z,101015.28
2022-12-09T23:09:31.346Z,101006.97
2022-12-09T23:11:57.887Z,101003.63
2022-12-09T23:14:24.453Z,101003.47
2022-12-09T23:16:50.885Z,101003.66
2022-12-09T23:19:17.520Z,100995.03
2022-12-09T23:21:44.094Z,100997.53
2022-12-09T23:24:15.712Z,100992.78
2022-12-09T23:26:45.025Z,100990.22
2022-12-09T23:29:14.897Z,100996.94
2022-12-09T23:31:42.574Z,101001.72
2022-12-09T23:34:11.792Z,100993.72
2022-12-09T23:36:40.627Z,100996.97
2022-12-09T23:39:10.991Z,100996.66
2022-12-09T23:41:39.294Z,100994.81
2022-12-09T23:44:15.071Z,100989.19
2022-12-09T23:46:42.167Z,100988.97
2022-12-09T23:49:08.742Z,100992.56
2022-12-09T23:51:37.757Z,100998.09
2022-12-09T23:54:06.450Z,100993.97
2022-12-09T23:56:38.479Z,101006.75
2022-12-09T23:59:08.053Z,101003.41
